createdAt,value
2016-05-27T00:00:04.184Z,1012.12
2016-05-27T00:00:14.168Z,1012.16
2016-05-27T00:00:24.168Z,1012.17
2016-05-27T00:00:34.028Z,1012.18
2016-05-27T00:00:44.168Z,1012.12
2016-05-27T00:00:54.168Z,1012.14
2016-05-27T00:01:03.998Z,1012.1
2016-05-27T00:01:14.155Z,1012.14
2016-05-27T00:01:24.139Z,1012.13
2016-05-27T00:01:34.123Z,1012.12
2016-05-27T00:01:44.139Z,1012.13
2016-05-27T00:01:54.123Z,1012.1
2016-05-27T00:02:03.970Z,1012.11
2016-05-27T00:02:14.111Z,1012.09
2016-05-27T00:02:24.111Z,1012.1
2016-05-27T00:02:34.111Z,1012.11
2016-05-27T00:02:44.111Z,1012.07
2016-05-27T00:02:53.939Z,1012.08
2016-05-27T00:03:04.098Z,1012.11
2016-05-27T00:03:14.083Z,1012.14
2016-05-27T00:03:24.676Z,1012.1
2016-05-27T00:03:34.083Z,1012.1
2016-05-27T00:03:44.348Z,1012.16
2016-05-27T00:03:53.926Z,1012.1
2016-05-27T00:04:04.086Z,1012.12
2016-05-27T00:04:14.257Z,1012.11
2016-05-27T00:04:25.101Z,1012.1
2016-05-27T00:04:34.054Z,1012.13
2016-05-27T00:04:43.898Z,1012.1
2016-05-27T00:04:54.039Z,1012.15
2016-05-27T00:05:03.728Z,1012.16
2016-05-27T00:05:13.884Z,1012.18
2016-05-27T00:05:24.025Z,1012.15
2016-05-27T00:05:33.869Z,1012.14
2016-05-27T00:05:44.009Z,1012.14
2016-05-27T00:05:54.025Z,1012.15
2016-05-27T00:06:03.856Z,1012.14
2016-05-27T00:06:14.012Z,1012.19
2016-05-27T00:06:23.841Z,1012.17
2016-05-27T00:06:33.825Z,1012.16
2016-05-27T00:06:43.981Z,1012.16
2016-05-27T00:06:53.966Z,1012.14
2016-05-27T00:07:03.969Z,1012.17
2016-05-27T00:07:13.969Z,1012.16
2016-05-27T00:07:23.969Z,1012.16
2016-05-27T00:07:33.969Z,1012.17
2016-05-27T00:07:43.953Z,1012.16
2016-05-27T00:07:53.797Z,1012.14
2016-05-27T00:08:03.939Z,1012.15
2016-05-27T00:08:13.783Z,1012.16
2016-05-27T00:08:23.939Z,1012.16
2016-05-27T00:08:33.939Z,1012.16
2016-05-27T00:08:43.939Z,1012.13
2016-05-27T00:08:53.924Z,1012.17
2016-05-27T00:09:03.770Z,1012.14
2016-05-27T00:09:13.927Z,1012.16
2016-05-27T00:09:23.911Z,1012.12
2016-05-27T00:09:33.911Z,1012.18
2016-05-27T00:09:43.895Z,1012.15
2016-05-27T00:09:53.895Z,1012.14
2016-05-27T00:10:03.898Z,1012.17
2016-05-27T00:10:13.883Z,1012.16
2016-05-27T00:10:23.727Z,1012.14
2016-05-27T00:10:33.758Z,1012.15
2016-05-27T00:10:43.711Z,1012.17
2016-05-27T00:10:53.867Z,1012.17
2016-05-27T00:11:03.869Z,1012.11
2016-05-27T00:11:13.854Z,1012.12
2016-05-27T00:11:23.854Z,1012.15
2016-05-27T00:11:33.854Z,1012.12
2016-05-27T00:11:43.838Z,1012.17
2016-05-27T00:11:53.838Z,1012.13
2016-05-27T00:12:03.669Z,1012.17
2016-05-27T00:12:13.825Z,1012.18
2016-05-27T00:12:23.825Z,1012.17
2016-05-27T00:12:33.685Z,1012.16
2016-05-27T00:12:43.810Z,1012.17
2016-05-27T00:12:53.653Z,1012.17
2016-05-27T00:13:03.671Z,1012.18
2016-05-27T00:13:13.796Z,1012.21
2016-05-27T00:13:23.796Z,1012.17
2016-05-27T00:13:33.780Z,1012.18
2016-05-27T00:13:43.765Z,1012.17
2016-05-27T00:13:53.780Z,1012.17
2016-05-27T00:14:03.769Z,1012.17
2016-05-27T00:14:13.784Z,1012.17
2016-05-27T00:14:23.753Z,1012.19
2016-05-27T00:14:33.753Z,1012.2
2016-05-27T00:14:43.753Z,1012.21
2016-05-27T00:14:53.597Z,1012.17
2016-05-27T00:15:03.740Z,1012.18
2016-05-27T00:15:13.740Z,1012.14
2016-05-27T00:15:23.724Z,1012.14
2016-05-27T00:15:33.724Z,1012.14
2016-05-27T00:15:43.724Z,1012.17
2016-05-27T00:15:53.708Z,1012.18
2016-05-27T00:16:03.554Z,1012.18
2016-05-27T00:16:13.710Z,1012.18
2016-05-27T00:16:23.710Z,1012.17
2016-05-27T00:16:33.695Z,1012.15
2016-05-27T00:16:43.695Z,1012.13
2016-05-27T00:16:53.695Z,1012.15
2016-05-27T00:17:03.682Z,1012.15
2016-05-27T00:17:13.698Z,1012.17
2016-05-27T00:17:23.729Z,1012.16
2016-05-27T00:17:33.526Z,1012.14
2016-05-27T00:17:43.666Z,1012.14
2016-05-27T00:17:53.651Z,1012.18
2016-05-27T00:18:03.654Z,1012.12
2016-05-27T00:18:13.498Z,1012.16
2016-05-27T00:18:23.341Z,1012.18
2016-05-27T00:18:33.591Z,1012.17
2016-05-27T00:18:44.419Z,1012.17
2016-05-27T00:18:53.638Z,1012.16
2016-05-27T00:19:04.001Z,1012.11
2016-05-27T00:19:13.501Z,1012.13
2016-05-27T00:19:24.063Z,1012.13
2016-05-27T00:19:33.594Z,1012.14
2016-05-27T00:19:43.610Z,1012.11
2016-05-27T00:19:53.594Z,1012.12
2016-05-27T00:20:03.457Z,1012.1
2016-05-27T00:20:13.597Z,1012.12
2016-05-27T00:20:23.597Z,1012.11
2016-05-27T00:20:33.582Z,1012.1
2016-05-27T00:20:43.582Z,1012.11
2016-05-27T00:20:53.425Z,1012.08
2016-05-27T00:21:03.568Z,1012.12
2016-05-27T00:21:13.412Z,1012.09
2016-05-27T00:21:23.568Z,1012.07
2016-05-27T00:21:33.552Z,1012.07
2016-05-27T00:21:43.552Z,1012.07
2016-05-27T00:21:53.552Z,1012.08
2016-05-27T00:22:03.383Z,1012.06
2016-05-27T00:22:13.539Z,1012.09
2016-05-27T00:22:23.523Z,1012.06
2016-05-27T00:22:33.523Z,1012.11
2016-05-27T00:22:43.523Z,1012.09
2016-05-27T00:22:53.508Z,1012.07
2016-05-27T00:23:03.526Z,1012.09
2016-05-27T00:23:13.495Z,1012.06
2016-05-27T00:23:23.495Z,1012.07
2016-05-27T00:23:33.370Z,1012.07
2016-05-27T00:23:43.495Z,1012.09
2016-05-27T00:23:53.479Z,1012.06
2016-05-27T00:24:03.468Z,1012.09
2016-05-27T00:24:13.468Z,1012.07
2016-05-27T00:24:23.499Z,1012.03
2016-05-27T00:24:33.499Z,1012.03
2016-05-27T00:24:43.468Z,1012.03
2016-05-27T00:24:53.468Z,1012.04
2016-05-27T00:25:03.470Z,1012.03
2016-05-27T00:25:13.454Z,1012.07
2016-05-27T00:25:23.438Z,1012.01
2016-05-27T00:25:33.438Z,1012.08
2016-05-27T00:25:43.423Z,1012.01
2016-05-27T00:25:53.438Z,1012.02
2016-05-27T00:26:03.426Z,1012
2016-05-27T00:26:13.426Z,1012.01
2016-05-27T00:26:23.270Z,1012
2016-05-27T00:26:33.395Z,1012.01
2016-05-27T00:26:43.238Z,1011.98
2016-05-27T00:26:53.395Z,1012.04
2016-05-27T00:27:03.240Z,1012.02
2016-05-27T00:27:13.381Z,1012.02
2016-05-27T00:27:23.068Z,1011.99
2016-05-27T00:27:33.365Z,1012.01
2016-05-27T00:27:43.365Z,1011.98
2016-05-27T00:27:53.381Z,1012.02
2016-05-27T00:28:03.353Z,1012.02
2016-05-27T00:28:13.353Z,1011.99
2016-05-27T00:28:23.353Z,1012.04
2016-05-27T00:28:33.400Z,1012.04
2016-05-27T00:28:43.196Z,1012.02
2016-05-27T00:28:53.337Z,1012.02
2016-05-27T00:29:03.339Z,1012.04
2016-05-27T00:29:13.167Z,1012
2016-05-27T00:29:23.323Z,1011.99
2016-05-27T00:29:33.323Z,1012.02
2016-05-27T00:29:43.308Z,1012.02
2016-05-27T00:29:53.308Z,1012.05
2016-05-27T00:30:03.326Z,1012.01
2016-05-27T00:30:13.295Z,1011.98
2016-05-27T00:30:23.295Z,1012
2016-05-27T00:30:33.280Z,1012.01
2016-05-27T00:30:43.280Z,1012.04
2016-05-27T00:30:53.280Z,1011.97
2016-05-27T00:31:03.283Z,1012.01
2016-05-27T00:31:13.267Z,1012.03
2016-05-27T00:31:23.126Z,1012.01
2016-05-27T00:31:33.126Z,1012.02
2016-05-27T00:31:43.267Z,1012.01
2016-05-27T00:31:53.251Z,1012.04
2016-05-27T00:32:03.239Z,1011.98
2016-05-27T00:32:13.239Z,1012.03
2016-05-27T00:32:23.239Z,1012.01
2016-05-27T00:32:33.223Z,1012.01
2016-05-27T00:32:43.223Z,1012.01
2016-05-27T00:32:53.067Z,1012.03
2016-05-27T00:33:03.225Z,1012
2016-05-27T00:33:13.053Z,1012.06
2016-05-27T00:33:23.209Z,1012.04
2016-05-27T00:33:33.209Z,1012.06
2016-05-27T00:33:43.194Z,1012.04
2016-05-27T00:33:53.772Z,1012.06
2016-05-27T00:34:03.181Z,1012.06
2016-05-27T00:34:13.587Z,1012.02
2016-05-27T00:34:23.181Z,1012.03
2016-05-27T00:34:33.025Z,1012.01
2016-05-27T00:34:43.181Z,1012
2016-05-27T00:34:53.166Z,1012.04
2016-05-27T00:35:03.168Z,1012.05
2016-05-27T00:35:13.136Z,1012.03
2016-05-27T00:35:23.136Z,1012.05
2016-05-27T00:35:32.980Z,1012.04
2016-05-27T00:35:43.136Z,1012.02
2016-05-27T00:35:53.136Z,1012.04
2016-05-27T00:36:02.983Z,1012.04
2016-05-27T00:36:12.967Z,1012.04
2016-05-27T00:36:23.124Z,1012.06
2016-05-27T00:36:33.108Z,1012.05
2016-05-27T00:36:43.108Z,1012.05
2016-05-27T00:36:53.108Z,1012.02
2016-05-27T00:37:03.095Z,1012
2016-05-27T00:37:13.095Z,1012.01
2016-05-27T00:37:22.955Z,1012.04
2016-05-27T00:37:32.939Z,1012.02
2016-05-27T00:37:43.080Z,1012.08
2016-05-27T00:37:53.080Z,1012.03
2016-05-27T00:38:03.067Z,1012.04
2016-05-27T00:38:13.067Z,1012.02
2016-05-27T00:38:23.067Z,1012.02
2016-05-27T00:38:33.052Z,1011.98
2016-05-27T00:38:43.083Z,1011.99
2016-05-27T00:38:53.036Z,1012
2016-05-27T00:39:03.054Z,1012.02
2016-05-27T00:39:13.038Z,1012.04
2016-05-27T00:39:23.038Z,1012.05
2016-05-27T00:39:33.038Z,1011.98
2016-05-27T00:39:43.038Z,1012
2016-05-27T00:39:53.022Z,1011.99
2016-05-27T00:40:03.010Z,1011.98
2016-05-27T00:40:13.010Z,1012
2016-05-27T00:40:22.853Z,1011.99
2016-05-27T00:40:33.010Z,1011.97
2016-05-27T00:40:42.838Z,1011.99
2016-05-27T00:40:52.994Z,1012.01
2016-05-27T00:41:02.981Z,1011.95
2016-05-27T00:41:12.981Z,1011.96
2016-05-27T00:41:22.997Z,1011.91
2016-05-27T00:41:32.981Z,1011.97
2016-05-27T00:41:42.966Z,1011.97
2016-05-27T00:41:52.950Z,1011.94
2016-05-27T00:42:02.952Z,1011.95
2016-05-27T00:42:12.937Z,1011.98
2016-05-27T00:42:22.952Z,1011.94
2016-05-27T00:42:32.952Z,1011.93
2016-05-27T00:42:42.937Z,1011.97
2016-05-27T00:42:52.937Z,1011.96
2016-05-27T00:43:02.924Z,1011.95
2016-05-27T00:43:12.768Z,1011.96
2016-05-27T00:43:22.908Z,1011.94
2016-05-27T00:43:32.908Z,1011.94
2016-05-27T00:43:42.908Z,1011.99
2016-05-27T00:43:52.908Z,1011.94
2016-05-27T00:44:02.755Z,1011.97
2016-05-27T00:44:12.896Z,1011.94
2016-05-27T00:44:22.739Z,1011.99
2016-05-27T00:44:32.864Z,1011.94
2016-05-27T00:44:42.864Z,1011.92
2016-05-27T00:44:52.880Z,1011.94
2016-05-27T00:45:02.867Z,1011.91
2016-05-27T00:45:12.852Z,1011.92
2016-05-27T00:45:22.852Z,1011.9
2016-05-27T00:45:32.852Z,1011.89
2016-05-27T00:45:42.852Z,1011.91
2016-05-27T00:45:52.836Z,1011.87
2016-05-27T00:46:02.838Z,1011.91
2016-05-27T00:46:12.838Z,1011.89
2016-05-27T00:46:22.838Z,1011.88
2016-05-27T00:46:32.823Z,1011.9
2016-05-27T00:46:42.823Z,1011.91
2016-05-27T00:46:52.823Z,1011.9
2016-05-27T00:47:02.810Z,1011.9
2016-05-27T00:47:12.810Z,1011.93
2016-05-27T00:47:22.794Z,1011.92
2016-05-27T00:47:32.794Z,1011.94
2016-05-27T00:47:42.638Z,1011.88
2016-05-27T00:47:52.779Z,1011.88
2016-05-27T00:48:02.781Z,1011.88
2016-05-27T00:48:12.624Z,1011.87
2016-05-27T00:48:23.328Z,1011.9
2016-05-27T00:48:32.468Z,1011.89
2016-05-27T00:48:43.671Z,1011.87
2016-05-27T00:48:52.937Z,1011.9
2016-05-27T00:49:02.753Z,1011.91
2016-05-27T00:49:13.207Z,1011.87
2016-05-27T00:49:23.050Z,1011.9
2016-05-27T00:49:32.738Z,1011.92
2016-05-27T00:49:42.722Z,1011.94
2016-05-27T00:49:52.722Z,1011.89
2016-05-27T00:50:02.724Z,1011.91
2016-05-27T00:50:12.709Z,1011.9
2016-05-27T00:50:22.709Z,1011.88
2016-05-27T00:50:32.724Z,1011.92
2016-05-27T00:50:42.537Z,1011.93
2016-05-27T00:50:52.709Z,1011.89
2016-05-27T00:51:02.680Z,1011.92
2016-05-27T00:51:12.696Z,1011.96
2016-05-27T00:51:22.680Z,1011.96
2016-05-27T00:51:32.680Z,1011.95
2016-05-27T00:51:42.680Z,1011.95
2016-05-27T00:51:52.680Z,1011.96
2016-05-27T00:52:02.667Z,1011.9
2016-05-27T00:52:12.651Z,1011.95
2016-05-27T00:52:22.495Z,1011.93
2016-05-27T00:52:32.495Z,1011.96
2016-05-27T00:52:42.635Z,1011.93
2016-05-27T00:52:52.495Z,1011.95
2016-05-27T00:53:02.638Z,1011.91
2016-05-27T00:53:12.654Z,1011.9
2016-05-27T00:53:22.638Z,1011.89
2016-05-27T00:53:32.623Z,1011.89
2016-05-27T00:53:42.607Z,1011.92
2016-05-27T00:53:52.607Z,1011.91
2016-05-27T00:54:02.610Z,1011.92
2016-05-27T00:54:12.595Z,1011.93
2016-05-27T00:54:22.610Z,1011.91
2016-05-27T00:54:32.595Z,1011.91
2016-05-27T00:54:42.579Z,1011.9
2016-05-27T00:54:52.579Z,1011.93
2016-05-27T00:55:02.565Z,1011.93
2016-05-27T00:55:12.565Z,1011.96
2016-05-27T00:55:22.565Z,1011.94
2016-05-27T00:55:32.565Z,1011.95
2016-05-27T00:55:42.565Z,1011.96
2016-05-27T00:55:52.550Z,1011.94
2016-05-27T00:56:02.537Z,1011.93
2016-05-27T00:56:12.537Z,1011.95
2016-05-27T00:56:22.521Z,1011.92
2016-05-27T00:56:32.381Z,1011.93
2016-05-27T00:56:42.521Z,1011.9
2016-05-27T00:56:52.537Z,1011.93
2016-05-27T00:57:02.524Z,1011.91
2016-05-27T00:57:12.493Z,1011.94
2016-05-27T00:57:22.493Z,1011.94
2016-05-27T00:57:32.493Z,1011.91
2016-05-27T00:57:42.493Z,1011.95
2016-05-27T00:57:52.493Z,1011.95
2016-05-27T00:58:02.323Z,1011.91
2016-05-27T00:58:12.495Z,1011.96
2016-05-27T00:58:22.480Z,1011.98
2016-05-27T00:58:32.464Z,1011.92
2016-05-27T00:58:42.464Z,1011.96
2016-05-27T00:58:52.448Z,1011.94
2016-05-27T00:59:02.452Z,1011.91
2016-05-27T00:59:12.452Z,1011.92
2016-05-27T00:59:22.437Z,1011.92
2016-05-27T00:59:32.437Z,1011.9
2016-05-27T00:59:42.437Z,1011.9
2016-05-27T00:59:52.437Z,1011.93
2016-05-27T01:00:02.282Z,1011.94
2016-05-27T01:00:12.423Z,1011.92
2016-05-27T01:00:22.267Z,1011.92
2016-05-27T01:00:32.407Z,1011.92
2016-05-27T01:00:42.407Z,1011.9
2016-05-27T01:00:52.407Z,1011.89
2016-05-27T01:01:02.081Z,1011.91
2016-05-27T01:01:12.409Z,1011.9
2016-05-27T01:01:22.394Z,1011.89
2016-05-27T01:01:32.378Z,1011.86
2016-05-27T01:01:42.378Z,1011.92
2016-05-27T01:01:52.378Z,1011.88
2016-05-27T01:02:02.382Z,1011.88
2016-05-27T01:02:12.367Z,1011.87
2016-05-27T01:02:22.351Z,1011.92
2016-05-27T01:02:32.351Z,1011.87
2016-05-27T01:02:42.335Z,1011.91
2016-05-27T01:02:52.335Z,1011.89
2016-05-27T01:03:02.337Z,1011.87
2016-05-27T01:03:12.197Z,1011.89
2016-05-27T01:03:22.337Z,1011.8
2016-05-27T01:03:32.509Z,1011.83
2016-05-27T01:03:43.228Z,1011.85
2016-05-27T01:03:52.462Z,1011.82
2016-05-27T01:04:02.325Z,1011.83
2016-05-27T01:04:12.653Z,1011.8
2016-05-27T01:04:22.153Z,1011.87
2016-05-27T01:04:32.309Z,1011.8
2016-05-27T01:04:42.293Z,1011.83
2016-05-27T01:04:52.278Z,1011.83
2016-05-27T01:05:02.295Z,1011.82
2016-05-27T01:05:12.264Z,1011.85
2016-05-27T01:05:22.264Z,1011.84
2016-05-27T01:05:32.264Z,1011.83
2016-05-27T01:05:42.092Z,1011.9
2016-05-27T01:05:52.108Z,1011.85
2016-05-27T01:06:02.252Z,1011.79
2016-05-27T01:06:12.095Z,1011.85
2016-05-27T01:06:22.236Z,1011.83
2016-05-27T01:06:32.252Z,1011.82
2016-05-27T01:06:42.220Z,1011.85
2016-05-27T01:06:52.064Z,1011.82
2016-05-27T01:07:02.223Z,1011.79
2016-05-27T01:07:12.208Z,1011.86
2016-05-27T01:07:22.208Z,1011.88
2016-05-27T01:07:32.051Z,1011.81
2016-05-27T01:07:42.192Z,1011.85
2016-05-27T01:07:52.192Z,1011.87
2016-05-27T01:08:02.194Z,1011.83
2016-05-27T01:08:12.022Z,1011.87
2016-05-27T01:08:22.178Z,1011.87
2016-05-27T01:08:32.163Z,1011.83
2016-05-27T01:08:42.163Z,1011.85
2016-05-27T01:08:52.163Z,1011.89
2016-05-27T01:09:02.150Z,1011.86
2016-05-27T01:09:12.166Z,1011.84
2016-05-27T01:09:22.150Z,1011.87
2016-05-27T01:09:31.994Z,1011.86
2016-05-27T01:09:41.978Z,1011.88
2016-05-27T01:09:52.150Z,1011.85
2016-05-27T01:10:02.137Z,1011.9
2016-05-27T01:10:12.121Z,1011.86
2016-05-27T01:10:22.121Z,1011.86
2016-05-27T01:10:32.105Z,1011.87
2016-05-27T01:10:42.105Z,1011.86
2016-05-27T01:10:51.949Z,1011.9
2016-05-27T01:11:01.936Z,1011.85
2016-05-27T01:11:11.952Z,1011.88
2016-05-27T01:11:22.093Z,1011.88
2016-05-27T01:11:32.108Z,1011.86
2016-05-27T01:11:42.077Z,1011.86
2016-05-27T01:11:52.061Z,1011.84
2016-05-27T01:12:02.080Z,1011.84
2016-05-27T01:12:11.908Z,1011.89
2016-05-27T01:12:22.080Z,1011.88
2016-05-27T01:12:32.064Z,1011.88
2016-05-27T01:12:42.049Z,1011.87
2016-05-27T01:12:52.049Z,1011.88
2016-05-27T01:13:02.036Z,1011.86
2016-05-27T01:13:11.896Z,1011.87
2016-05-27T01:13:22.052Z,1011.93
2016-05-27T01:13:31.896Z,1011.92
2016-05-27T01:13:42.021Z,1011.91
2016-05-27T01:13:52.021Z,1011.91
2016-05-27T01:14:02.008Z,1011.91
2016-05-27T01:14:12.008Z,1011.92
2016-05-27T01:14:21.852Z,1011.93
2016-05-27T01:14:32.008Z,1011.89
2016-05-27T01:14:41.992Z,1011.91
2016-05-27T01:14:51.836Z,1011.89
2016-05-27T01:15:01.994Z,1011.9
2016-05-27T01:15:11.963Z,1011.98
2016-05-27T01:15:21.979Z,1011.92
2016-05-27T01:15:31.963Z,1011.93
2016-05-27T01:15:41.963Z,1011.94
2016-05-27T01:15:51.807Z,1011.92
2016-05-27T01:16:01.966Z,1011.93
2016-05-27T01:16:11.982Z,1011.91
2016-05-27T01:16:21.794Z,1011.91
2016-05-27T01:16:31.935Z,1011.93
2016-05-27T01:16:41.935Z,1011.91
2016-05-27T01:16:51.919Z,1011.94
2016-05-27T01:17:01.922Z,1011.95
2016-05-27T01:17:11.922Z,1011.93
2016-05-27T01:17:21.766Z,1011.93
2016-05-27T01:17:31.750Z,1011.95
2016-05-27T01:17:41.907Z,1011.99
2016-05-27T01:17:51.891Z,1011.98
2016-05-27T01:18:01.753Z,1011.92
2016-05-27T01:18:11.894Z,1011.95
2016-05-27T01:18:21.894Z,1011.98
2016-05-27T01:18:32.253Z,1011.91
2016-05-27T01:18:41.910Z,1011.97
2016-05-27T01:18:51.722Z,1011.93
2016-05-27T01:19:01.724Z,1011.97
2016-05-27T01:19:11.865Z,1011.99
2016-05-27T01:19:22.177Z,1011.99
2016-05-27T01:19:31.849Z,1011.96
2016-05-27T01:19:41.833Z,1011.95
2016-05-27T01:19:51.849Z,1011.92
2016-05-27T01:20:01.836Z,1011.98
2016-05-27T01:20:11.836Z,1011.96
2016-05-27T01:20:21.821Z,1011.96
2016-05-27T01:20:31.821Z,1011.95
2016-05-27T01:20:41.665Z,1011.98
2016-05-27T01:20:51.805Z,1012
2016-05-27T01:21:01.807Z,1011.97
2016-05-27T01:21:11.635Z,1011.96
2016-05-27T01:21:21.792Z,1011.98
2016-05-27T01:21:31.792Z,1012.02
2016-05-27T01:21:41.792Z,1011.99
2016-05-27T01:21:51.792Z,1012.01
2016-05-27T01:22:01.780Z,1011.97
2016-05-27T01:22:11.780Z,1011.98
2016-05-27T01:22:21.764Z,1011.98
2016-05-27T01:22:31.749Z,1011.93
2016-05-27T01:22:41.749Z,1012
2016-05-27T01:22:51.749Z,1012.02
2016-05-27T01:23:01.750Z,1012
2016-05-27T01:23:11.750Z,1011.96
2016-05-27T01:23:21.578Z,1011.98
2016-05-27T01:23:31.578Z,1011.99
2016-05-27T01:23:41.718Z,1012.02
2016-05-27T01:23:51.734Z,1012.05
2016-05-27T01:24:01.721Z,1012.03
2016-05-27T01:24:11.721Z,1012.02
2016-05-27T01:24:21.565Z,1011.98
2016-05-27T01:24:31.706Z,1012
2016-05-27T01:24:41.690Z,1012.03
2016-05-27T01:24:51.534Z,1012.01
2016-05-27T01:25:01.537Z,1011.97
2016-05-27T01:25:11.693Z,1012
2016-05-27T01:25:21.678Z,1012
2016-05-27T01:25:31.678Z,1012.01
2016-05-27T01:25:41.678Z,1011.99
2016-05-27T01:25:51.506Z,1012.03
2016-05-27T01:26:01.665Z,1011.99
2016-05-27T01:26:11.649Z,1012.01
2016-05-27T01:26:21.493Z,1012.02
2016-05-27T01:26:31.649Z,1012.01
2016-05-27T01:26:41.634Z,1012.02
2016-05-27T01:26:51.634Z,1012.01
2016-05-27T01:27:01.480Z,1012.04
2016-05-27T01:27:11.621Z,1012.02
2016-05-27T01:27:21.465Z,1012.05
2016-05-27T01:27:31.621Z,1012.03
2016-05-27T01:27:41.621Z,1012.04
2016-05-27T01:27:51.605Z,1012.03
2016-05-27T01:28:01.608Z,1012.03
2016-05-27T01:28:11.593Z,1012.05
2016-05-27T01:28:21.608Z,1012.04
2016-05-27T01:28:31.593Z,1012
2016-05-27T01:28:41.437Z,1012.04
2016-05-27T01:28:51.577Z,1012.02
2016-05-27T01:29:01.579Z,1012.01
2016-05-27T01:29:11.564Z,1012.02
2016-05-27T01:29:21.392Z,1012.02
2016-05-27T01:29:31.548Z,1011.98
2016-05-27T01:29:41.548Z,1012
2016-05-27T01:29:51.548Z,1011.99
2016-05-27T01:30:01.535Z,1011.97
2016-05-27T01:30:11.535Z,1012.03
2016-05-27T01:30:21.567Z,1012
2016-05-27T01:30:31.520Z,1012.02
2016-05-27T01:30:41.535Z,1012.01
2016-05-27T01:30:51.504Z,1012.03
2016-05-27T01:31:01.522Z,1012.02
2016-05-27T01:31:11.506Z,1012.01
2016-05-27T01:31:21.506Z,1011.97
2016-05-27T01:31:31.490Z,1012.01
2016-05-27T01:31:41.490Z,1012.02
2016-05-27T01:31:51.350Z,1011.96
2016-05-27T01:32:01.478Z,1012.01
2016-05-27T01:32:11.478Z,1012.02
2016-05-27T01:32:21.322Z,1011.98
2016-05-27T01:32:31.306Z,1011.99
2016-05-27T01:32:41.462Z,1011.98
2016-05-27T01:32:51.447Z,1011.99
2016-05-27T01:33:01.309Z,1011.99
2016-05-27T01:33:11.450Z,1012.01
2016-05-27T01:33:21.793Z,1012.02
2016-05-27T01:33:31.293Z,1012.03
2016-05-27T01:33:41.325Z,1012.02
2016-05-27T01:33:51.434Z,1012.05
2016-05-27T01:34:01.437Z,1012.03
2016-05-27T01:34:11.421Z,1012.06
2016-05-27T01:34:21.265Z,1012.03
2016-05-27T01:34:31.421Z,1012.02
2016-05-27T01:34:41.406Z,1012.07
2016-05-27T01:34:51.406Z,1012.02
2016-05-27T01:35:01.392Z,1012.04
2016-05-27T01:35:11.392Z,1012.04
2016-05-27T01:35:21.392Z,1012.04
2016-05-27T01:35:31.376Z,1012.04
2016-05-27T01:35:41.376Z,1012.04
2016-05-27T01:35:51.345Z,1012.06
2016-05-27T01:36:01.363Z,1012.03
2016-05-27T01:36:11.347Z,1012.06
2016-05-27T01:36:21.347Z,1012.06
2016-05-27T01:36:31.347Z,1012.04
2016-05-27T01:36:41.347Z,1012.05
2016-05-27T01:36:51.332Z,1012.06
2016-05-27T01:37:01.336Z,1012.04
2016-05-27T01:37:11.320Z,1012.03
2016-05-27T01:37:21.164Z,1012.02
2016-05-27T01:37:31.304Z,1012.03
2016-05-27T01:37:41.304Z,1012.02
2016-05-27T01:37:51.304Z,1012.04
2016-05-27T01:38:01.306Z,1012.06
2016-05-27T01:38:11.291Z,1012.05
2016-05-27T01:38:21.291Z,1012.02
2016-05-27T01:38:31.291Z,1012.09
2016-05-27T01:38:41.275Z,1012.06
2016-05-27T01:38:51.275Z,1012.06
2016-05-27T01:39:01.278Z,1012.07
2016-05-27T01:39:11.262Z,1012.06
2016-05-27T01:39:21.262Z,1012.07
2016-05-27T01:39:31.262Z,1012.04
2016-05-27T01:39:41.247Z,1012.03
2016-05-27T01:39:51.247Z,1012.06
2016-05-27T01:40:01.249Z,1012.05
2016-05-27T01:40:11.249Z,1012.04
2016-05-27T01:40:21.249Z,1012.04
2016-05-27T01:40:31.218Z,1012.06
2016-05-27T01:40:41.218Z,1012.07
2016-05-27T01:40:51.218Z,1012.06
2016-05-27T01:41:01.221Z,1012.06
2016-05-27T01:41:11.221Z,1012.05
2016-05-27T01:41:21.205Z,1012.02
2016-05-27T01:41:31.049Z,1012.05
2016-05-27T01:41:41.189Z,1012.08
2016-05-27T01:41:51.205Z,1012.08
2016-05-27T01:42:01.177Z,1012.08
2016-05-27T01:42:11.192Z,1012.03
2016-05-27T01:42:21.177Z,1012.05
2016-05-27T01:42:31.161Z,1012.02
2016-05-27T01:42:41.161Z,1012.02
2016-05-27T01:42:51.145Z,1012.07
2016-05-27T01:43:01.148Z,1012.04
2016-05-27T01:43:11.164Z,1012.05
2016-05-27T01:43:21.148Z,1012.04
2016-05-27T01:43:31.133Z,1012.02
2016-05-27T01:43:41.133Z,1012.05
2016-05-27T01:43:51.133Z,1012.04
2016-05-27T01:44:01.119Z,1012.01
2016-05-27T01:44:11.119Z,1012.07
2016-05-27T01:44:21.119Z,1012.02
2016-05-27T01:44:31.135Z,1012.03
2016-05-27T01:44:41.119Z,1012.02
2016-05-27T01:44:51.119Z,1012.04
2016-05-27T01:45:01.107Z,1012.03
2016-05-27T01:45:11.091Z,1012.05
2016-05-27T01:45:21.091Z,1012.08
2016-05-27T01:45:31.091Z,1012.03
2016-05-27T01:45:41.075Z,1012.07
2016-05-27T01:45:51.075Z,1011.99
2016-05-27T01:46:01.078Z,1012.02
2016-05-27T01:46:11.063Z,1012.04
2016-05-27T01:46:21.063Z,1012.03
2016-05-27T01:46:31.094Z,1012.06
2016-05-27T01:46:41.031Z,1012.06
2016-05-27T01:46:50.891Z,1012.04
2016-05-27T01:47:01.049Z,1012.04
2016-05-27T01:47:11.033Z,1012.04
2016-05-27T01:47:21.033Z,1012.06
2016-05-27T01:47:31.033Z,1012.07
2016-05-27T01:47:41.018Z,1012.05
2016-05-27T01:47:51.002Z,1012.09
2016-05-27T01:48:01.005Z,1012.08
2016-05-27T01:48:11.005Z,1012.02
2016-05-27T01:48:21.052Z,1012.05
2016-05-27T01:48:30.927Z,1012.04
2016-05-27T01:48:40.833Z,1012.05
2016-05-27T01:48:50.990Z,1012.02
2016-05-27T01:49:00.979Z,1012.09
2016-05-27T01:49:10.698Z,1012.06
2016-05-27T01:49:20.979Z,1012.02
2016-05-27T01:49:30.995Z,1012.02
2016-05-27T01:49:40.823Z,1012.06
2016-05-27T01:49:50.963Z,1012.06
2016-05-27T01:50:00.985Z,1012.03
2016-05-27T01:50:10.970Z,1012.06
2016-05-27T01:50:20.970Z,1012.02
2016-05-27T01:50:30.970Z,1012.07
2016-05-27T01:50:40.985Z,1012.06
2016-05-27T01:50:50.954Z,1012.07
2016-05-27T01:51:00.960Z,1012.06
2016-05-27T01:51:10.945Z,1012.06
2016-05-27T01:51:20.804Z,1012.06
2016-05-27T01:51:30.789Z,1011.99
2016-05-27T01:51:40.945Z,1012.01
2016-05-27T01:51:50.960Z,1012.07
2016-05-27T01:52:00.951Z,1012.06
2016-05-27T01:52:10.951Z,1012.07
2016-05-27T01:52:20.779Z,1012.01
2016-05-27T01:52:30.951Z,1012.03
2016-05-27T01:52:40.936Z,1012
2016-05-27T01:52:50.779Z,1012.03
2016-05-27T01:53:00.958Z,1012.01
2016-05-27T01:53:10.942Z,1012.05
2016-05-27T01:53:20.926Z,1012.04
2016-05-27T01:53:30.926Z,1012.08
2016-05-27T01:53:40.926Z,1012.04
2016-05-27T01:53:50.926Z,1012.07
2016-05-27T01:54:00.774Z,1012.03
2016-05-27T01:54:10.931Z,1012.04
2016-05-27T01:54:20.774Z,1012.04
2016-05-27T01:54:30.915Z,1012.01
2016-05-27T01:54:40.915Z,1012.02
2016-05-27T01:54:50.759Z,1012.05
2016-05-27T01:55:00.909Z,1012.02
2016-05-27T01:55:10.909Z,1012.07
2016-05-27T01:55:20.894Z,1012.07
2016-05-27T01:55:30.894Z,1012.05
2016-05-27T01:55:40.909Z,1012.08
2016-05-27T01:55:50.894Z,1012.04
2016-05-27T01:56:00.887Z,1012.05
2016-05-27T01:56:10.872Z,1012.1
2016-05-27T01:56:20.715Z,1012.04
2016-05-27T01:56:30.872Z,1012.06
2016-05-27T01:56:40.856Z,1012.02
2016-05-27T01:56:50.856Z,1012.04
2016-05-27T01:57:00.710Z,1012.05
2016-05-27T01:57:10.866Z,1012.03
2016-05-27T01:57:20.850Z,1012.04
2016-05-27T01:57:30.850Z,1012.05
2016-05-27T01:57:40.850Z,1012.02
2016-05-27T01:57:50.819Z,1012
2016-05-27T01:58:00.829Z,1012.06
2016-05-27T01:58:10.845Z,1012.03
2016-05-27T01:58:20.829Z,1012.03
2016-05-27T01:58:30.845Z,1012.03
2016-05-27T01:58:40.829Z,1012.02
2016-05-27T01:58:50.813Z,1012.06
2016-05-27T01:59:00.821Z,1012.03
2016-05-27T01:59:10.806Z,1012.07
2016-05-27T01:59:20.806Z,1012.01
2016-05-27T01:59:30.821Z,1012.01
2016-05-27T01:59:40.790Z,1012.06
2016-05-27T01:59:50.775Z,1012.04
2016-05-27T02:00:00.781Z,1012.06
2016-05-27T02:00:10.624Z,1012.05
2016-05-27T02:00:20.796Z,1012.06
2016-05-27T02:00:30.781Z,1012.08
2016-05-27T02:00:40.765Z,1012.05
2016-05-27T02:00:50.765Z,1012.07
2016-05-27T02:01:00.771Z,1012.02
2016-05-27T02:01:10.755Z,1012.06
2016-05-27T02:01:20.599Z,1012.06